Time;durP1;ratioP1;P1;durP2;ratioP2;P2;SDS_P1;SDS_P2;PMS_P1;PMS_P2;Temp;Humidity;BMP_temperature;BMP_pressure;BME280_temperature;BME280_humidity;BME280_pressure;Samples;Min_cycle;Max_cycle;Signal;HPM_P1;HPM_P2
2023/01/08 00:01:10;;;;;;;7.35;1.50;;;;;;;;;;6311645;22;20379;-78
2023/01/08 00:03:37;;;;;;;8.35;1.77;;;;;;;;;;6309818;22;20358;-77
2023/01/08 00:06:07;;;;;;;8.00;1.73;;;;;;;;;;6312544;22;20357;-77
2023/01/08 00:08:33;;;;;;;9.27;1.80;;;;;;;;;;6342511;22;20329;-78
2023/01/08 00:10:59;;;;;;;8.52;1.90;;;;;;;;;;6342567;22;20333;-78
2023/01/08 00:13:25;;;;;;;8.43;2.05;;;;;;;;;;6342558;22;20359;-79
2023/01/08 00:15:52;;;;;;;6.68;1.88;;;;;;;;;;6309220;22;20400;-79
2023/01/08 00:18:18;;;;;;;8.13;1.90;;;;;;;;;;6329853;22;20337;-79
2023/01/08 00:20:44;;;;;;;8.93;1.87;;;;;;;;;;6342408;22;20371;-79
2023/01/08 00:23:14;;;;;;;8.15;1.80;;;;;;;;;;6342157;22;20851;-79
2023/01/08 00:25:40;;;;;;;9.32;2.00;;;;;;;;;;6342439;22;20359;-80
2023/01/08 00:28:06;;;;;;;9.30;1.90;;;;;;;;;;6342295;22;20414;-80
2023/01/08 00:30:32;;;;;;;7.40;1.90;;;;;;;;;;6309036;22;20430;-80
2023/01/08 00:32:58;;;;;;;8.90;2.00;;;;;;;;;;6338316;22;20340;-80
2023/01/08 00:35:24;;;;;;;8.65;2.03;;;;;;;;;;6309184;22;20357;-80
2023/01/08 00:37:51;;;;;;;6.95;2.30;;;;;;;;;;6309244;22;20374;-81
2023/01/08 00:40:17;;;;;;;8.18;1.95;;;;;;;;;;6309808;22;20807;-79
2023/01/08 00:42:43;;;;;;;8.40;1.70;;;;;;;;;;6309062;22;20378;-80
2023/01/08 00:45:09;;;;;;;7.38;1.77;;;;;;;;;;6340423;22;20348;-80
2023/01/08 00:47:35;;;;;;;8.40;1.60;;;;;;;;;;6342104;22;20333;-80
2023/01/08 00:50:01;;;;;;;7.40;1.50;;;;;;;;;;6340915;22;20337;-80
2023/01/08 00:52:27;;;;;;;7.85;1.50;;;;;;;;;;6342193;22;20365;-80
2023/01/08 00:54:53;;;;;;;6.20;1.60;;;;;;;;;;6342260;22;20389;-79
2023/01/08 00:57:19;;;;;;;7.32;1.80;;;;;;;;;;6342405;22;20372;-79
2023/01/08 00:59:45;;;;;;;9.80;1.80;;;;;;;;;;6309269;22;20836;-78
2023/01/08 01:02:11;;;;;;;9.20;1.90;;;9.80;99.90;;;;;;6340476;22;20443;-77
2023/01/08 01:04:37;;;;;;;5.43;1.10;;;9.40;99.90;;;;;;6342489;22;20345;-78
2023/01/08 01:07:03;;;;;;;3.83;0.90;;;8.90;99.90;;;;;;6342217;22;20666;-78
2023/01/08 01:09:29;;;;;;;4.43;1.02;;;8.60;99.90;;;;;;6343768;22;19995;-77
2023/01/08 01:11:54;;;;;;;2.20;0.60;;;8.30;99.90;;;;;;6343875;22;20388;-78
2023/01/08 01:14:20;;;;;;;5.10;0.90;;;8.00;99.90;;;;;;6342069;22;20827;-79
2023/01/08 01:16:47;;;;;;;3.53;0.70;;;8.10;99.90;;;;;;6343613;22;20010;-80
2023/01/08 01:19:14;;;;;;;3.22;0.55;;;8.00;99.90;;;;;;6343602;22;20005;-80
2023/01/08 01:21:40;;;;;;;2.38;0.50;;;8.00;99.90;;;;;;6343524;22;20425;-80
2023/01/08 01:24:06;;;;;;;1.52;0.40;;;8.10;99.90;;;;;;6315825;22;20030;-79
2023/01/08 01:26:32;;;;;;;2.17;0.40;;;8.10;99.90;;;;;;6345063;22;20041;-79
2023/01/08 01:28:59;;;;;;;0.95;0.30;;;8.10;99.90;;;;;;6345588;22;19995;-79
2023/01/08 01:31:27;;;;;;;0.90;0.30;;;8.10;99.90;;;;;;6345151;22;20309;-79
2023/01/08 01:33:52;;;;;;;2.33;0.45;;;8.10;99.90;;;;;;6345668;22;19999;-79
2023/01/08 01:36:22;;;;;;;0.73;0.30;;;8.00;99.90;;;;;;6345524;22;20030;-79
2023/01/08 01:38:49;;;;;;;1.27;0.40;;;7.90;99.90;;;;;;6345478;22;20007;-79
2023/01/08 01:41:23;;;;;;;0.95;0.35;;;7.90;99.90;;;;;;6317596;22;19998;-79
2023/01/08 01:43:49;;;;;;;2.13;0.60;;;7.90;99.90;;;;;;6312301;22;20003;-78
2023/01/08 01:46:30;;;;;;;1.92;0.47;;;8.00;99.90;;;;;;6344657;22;20002;-78
2023/01/08 01:49:01;;;;;;;1.17;0.35;;;8.00;99.90;;;;;;6345499;22;20324;-80
2023/01/08 01:51:31;;;;;;;1.40;0.40;;;8.10;99.90;;;;;;6312633;22;20010;-81
2023/01/08 01:53:58;;;;;;;0.45;0.30;;;8.10;99.90;;;;;;6341021;22;20056;-81
2023/01/08 01:56:25;;;;;;;0.63;0.30;;;8.10;99.90;;;;;;6345008;22;20002;-80
2023/01/08 01:58:51;;;;;;;1.40;0.32;;;8.20;99.90;;;;;;6344885;22;20002;-80
2023/01/08 02:01:17;;;;;;;1.35;0.40;;;8.20;99.90;;;;;;6344724;22;20040;-79
2023/01/08 02:03:43;;;;;;;0.20;0.20;;;8.20;99.90;;;;;;6344878;22;20026;-80
2023/01/08 02:06:28;;;;;;;2.25;0.47;;;8.20;99.90;;;;;;6345289;22;20485;-80
2023/01/08 02:09:08;;;;;;;1.60;0.22;;;8.30;99.90;;;;;;6345258;22;20026;-80
2023/01/08 02:12:16;;;;;;;1.17;0.40;;;8.30;99.90;;;;;;6345051;22;20009;-80
2023/01/08 02:14:53;;;;;;;0.40;0.20;;;8.40;99.90;;;;;;6345024;22;19999;-79
2023/01/08 02:17:53;;;;;;;1.63;0.30;;;8.30;99.90;;;;;;6311613;22;20003;-80
2023/01/08 02:20:38;;;;;;;1.13;0.50;;;8.40;99.90;;;;;;6332503;22;20331;-78
2023/01/08 02:23:51;;;;;;;1.20;0.30;;;8.40;99.90;;;;;;6344718;22;20009;-78
2023/01/08 02:26:28;;;;;;;1.88;0.30;;;8.30;99.90;;;;;;6188686;23;20001;-77
2023/01/08 02:29:09;;;;;;;0.75;0.30;;;8.30;99.90;;;;;;6323711;22;20026;-78
2023/01/08 02:31:39;;;;;;;0.68;0.25;;;8.30;99.90;;;;;;6344869;22;20079;-78
2023/01/08 02:34:05;;;;;;;1.48;0.40;;;8.30;99.90;;;;;;6314302;22;20007;-78
2023/01/08 02:36:43;;;;;;;0.65;0.40;;;8.30;99.90;;;;;;6344740;22;20074;-78
2023/01/08 02:39:46;;;;;;;1.05;0.32;;;8.20;99.90;;;;;;6344693;22;20034;-78
2023/01/08 02:42:38;;;;;;;2.05;0.35;;;8.10;99.90;;;;;;6315928;22;20011;-79
2023/01/08 02:45:43;;;;;;;0.50;0.30;;;8.10;99.90;;;;;;6314201;22;20003;-78
2023/01/08 02:48:14;;;;;;;0.95;0.30;;;8.20;99.90;;;;;;6344244;22;20022;-80
2023/01/08 02:51:01;;;;;;;1.13;0.30;;;8.20;99.90;;;;;;6311316;22;20364;-79
2023/01/08 02:53:30;;;;;;;0.45;0.25;;;8.10;99.90;;;;;;6311672;22;20003;-80
2023/01/08 02:56:04;;;;;;;1.20;0.28;;;8.20;99.90;;;;;;6312379;22;20008;-79
2023/01/08 02:58:32;;;;;;;0.88;0.30;;;8.20;99.90;;;;;;6311581;22;20014;-79
2023/01/08 03:01:01;;;;;;;1.55;0.40;;;8.10;99.90;;;;;;6312987;22;20029;-79
2023/01/08 03:03:28;;;;;;;1.15;0.40;;;8.20;99.90;;;;;;6343864;22;20607;-79
2023/01/08 03:06:05;;;;;;;1.17;0.35;;;8.20;99.90;;;;;;6343948;22;19995;-79
2023/01/08 03:08:35;;;;;;;1.33;0.52;;;8.20;99.90;;;;;;6343216;22;20014;-79
2023/01/08 03:11:07;;;;;;;1.23;0.35;;;8.20;99.90;;;;;;6344289;22;20022;-79
2023/01/08 03:13:45;;;;;;;1.08;0.35;;;8.20;99.90;;;;;;6344177;22;20053;-78
2023/01/08 03:16:16;;;;;;;2.53;0.50;;;8.10;99.90;;;;;;6342767;22;20404;-77
2023/01/08 03:18:50;;;;;;;1.77;0.63;;;8.00;99.90;;;;;;6309512;22;20317;-78
2023/01/08 03:21:20;;;;;;;3.50;0.60;;;7.90;99.90;;;;;;6343120;22;20049;-78
2023/01/08 03:23:47;;;;;;;1.85;0.57;;;7.90;99.90;;;;;;6310376;22;20031;-78
2023/01/08 03:26:18;;;;;;;1.38;0.50;;;7.90;99.90;;;;;;6340717;22;19995;-78
2023/01/08 03:28:48;;;;;;;1.20;0.47;;;8.00;99.90;;;;;;6341595;22;20003;-78
2023/01/08 03:31:16;;;;;;;0.77;0.30;;;8.00;99.90;;;;;;6341908;22;20033;-78
2023/01/08 03:33:44;;;;;;;0.88;0.30;;;8.00;99.90;;;;;;6344041;22;20002;-79
2023/01/08 03:36:13;;;;;;;1.50;0.38;;;8.10;99.90;;;;;;6343777;22;20082;-80
2023/01/08 03:38:46;;;;;;;0.55;0.30;;;8.10;99.90;;;;;;6342133;22;20014;-80
2023/01/08 03:41:17;;;;;;;1.38;0.57;;;8.10;99.90;;;;;;6341837;22;20037;-81
2023/01/08 03:43:43;;;;;;;2.53;0.60;;;8.00;99.90;;;;;;6341796;22;19998;-78
2023/01/08 03:46:15;;;;;;;1.75;0.63;;;8.00;99.90;;;;;;6341340;22;20001;-78
2023/01/08 03:48:42;;;;;;;1.10;0.40;;;8.00;99.90;;;;;;6308370;22;20030;-78
2023/01/08 03:51:11;;;;;;;1.63;0.50;;;8.00;99.90;;;;;;6339679;22;20616;-78
2023/01/08 03:53:36;;;;;;;3.20;0.88;;;8.00;99.90;;;;;;6342794;22;20003;-78
2023/01/08 03:56:03;;;;;;;6.72;0.50;;;8.00;99.90;;;;;;6313112;22;20151;-78
2023/01/08 03:58:28;;;;;;;2.80;0.55;;;8.00;99.90;;;;;;6344182;22;19999;-79
2023/01/08 04:00:54;;;;;;;3.08;0.65;;;8.00;99.90;;;;;;6343529;22;20339;-80
2023/01/08 04:03:20;;;;;;;3.17;0.63;;;8.10;99.90;;;;;;6343609;22;20005;-79
2023/01/08 04:05:45;;;;;;;4.22;0.57;;;8.10;99.90;;;;;;6344000;22;20060;-78
2023/01/08 04:08:11;;;;;;;2.15;0.60;;;8.00;99.90;;;;;;6315179;22;20004;-78
2023/01/08 04:10:37;;;;;;;1.33;0.45;;;8.10;99.90;;;;;;6344099;22;20006;-78
2023/01/08 04:13:02;;;;;;;1.65;0.43;;;8.10;99.90;;;;;;6343984;22;20009;-78
2023/01/08 04:15:28;;;;;;;1.73;0.35;;;8.10;99.90;;;;;;6343780;22;20002;-80
2023/01/08 04:17:54;;;;;;;0.32;0.20;;;8.10;99.90;;;;;;6343667;22;20328;-80
2023/01/08 04:20:19;;;;;;;2.55;0.40;;;8.10;99.90;;;;;;6343809;22;19999;-80
2023/01/08 04:22:45;;;;;;;1.40;0.38;;;8.00;99.90;;;;;;6343957;22;20038;-79
2023/01/08 04:25:11;;;;;;;2.75;0.38;;;8.00;99.90;;;;;;6343893;22;19999;-80
2023/01/08 04:27:36;;;;;;;1.33;0.50;;;8.00;99.90;;;;;;6311062;22;20003;-80
2023/01/08 04:30:03;;;;;;;1.15;0.38;;;8.00;99.90;;;;;;6313159;22;20366;-80
2023/01/08 04:32:28;;;;;;;2.90;0.50;;;8.00;99.90;;;;;;6310714;22;20003;-80
2023/01/08 04:34:54;;;;;;;2.70;0.40;;;8.00;99.90;;;;;;6311117;22;20086;-80
2023/01/08 04:37:20;;;;;;;1.65;0.40;;;8.10;99.90;;;;;;6310696;22;20517;-80
2023/01/08 04:39:46;;;;;;;1.05;0.30;;;8.10;99.90;;;;;;6336986;22;20002;-80
2023/01/08 04:42:11;;;;;;;2.47;0.60;;;8.10;99.90;;;;;;6343528;22;20002;-80
2023/01/08 04:44:37;;;;;;;0.52;0.20;;;8.10;99.90;;;;;;6343464;22;20435;-80
2023/01/08 04:47:03;;;;;;;1.60;0.30;;;8.00;99.90;;;;;;6343639;22;20008;-79
2023/01/08 04:49:28;;;;;;;0.82;0.38;;;7.90;99.90;;;;;;6310436;22;20010;-79
2023/01/08 04:51:54;;;;;;;1.00;0.32;;;7.90;99.90;;;;;;6338727;22;20085;-79
2023/01/08 04:54:20;;;;;;;1.83;0.40;;;7.90;99.90;;;;;;6310757;22;20004;-78
2023/01/08 04:56:48;;;;;;;2.08;0.43;;;7.80;99.90;;;;;;6310227;22;20083;-78
2023/01/08 04:59:14;;;;;;;1.05;0.40;;;7.80;99.90;;;;;;6342674;22;20003;-78
2023/01/08 05:01:39;;;;;;;1.23;0.45;;;7.80;99.90;;;;;;6343504;22;20003;-78
2023/01/08 05:04:05;;;;;;;0.85;0.25;;;7.80;99.90;;;;;;6313853;22;20082;-78
2023/01/08 05:06:31;;;;;;;1.45;0.40;;;7.80;99.90;;;;;;6343683;22;19995;-78
2023/01/08 05:08:57;;;;;;;3.70;0.43;;;7.70;99.90;;;;;;6343476;22;19999;-78
2023/01/08 05:11:24;;;;;;;0.57;0.30;;;7.80;99.90;;;;;;6311104;22;20075;-78
2023/01/08 05:13:51;;;;;;;1.90;0.30;;;7.80;99.90;;;;;;6337859;22;19999;-79
2023/01/08 05:16:16;;;;;;;1.15;0.45;;;7.80;99.90;;;;;;6343414;22;19999;-79
2023/01/08 05:18:44;;;;;;;2.42;0.73;;;7.80;99.90;;;;;;6343702;22;20051;-79
2023/01/08 05:21:09;;;;;;;2.92;0.57;;;7.80;99.90;;;;;;6343390;22;20078;-80
2023/01/08 05:23:35;;;;;;;2.08;0.60;;;7.80;99.90;;;;;;6310359;22;20007;-80
2023/01/08 05:26:03;;;;;;;2.05;0.50;;;7.70;99.90;;;;;;6340258;22;20304;-79
2023/01/08 05:28:30;;;;;;;1.85;0.38;;;7.80;99.90;;;;;;6343739;22;20323;-77
2023/01/08 05:30:56;;;;;;;1.00;0.40;;;7.80;99.90;;;;;;6343359;22;20121;-78
2023/01/08 05:33:22;;;;;;;1.65;0.43;;;7.80;99.90;;;;;;6310559;22;20014;-78
2023/01/08 05:35:49;;;;;;;0.85;0.30;;;7.80;99.90;;;;;;6337163;22;20501;-78
2023/01/08 05:38:15;;;;;;;4.25;0.50;;;7.90;99.90;;;;;;6343266;22;20019;-78
2023/01/08 05:40:40;;;;;;;2.53;0.40;;;7.90;99.90;;;;;;6343145;22;20024;-77
2023/01/08 05:43:06;;;;;;;2.08;0.65;;;7.80;99.90;;;;;;6343288;22;19999;-77
2023/01/08 05:45:32;;;;;;;1.15;0.20;;;7.80;99.90;;;;;;6310160;22;20003;-78
2023/01/08 05:47:58;;;;;;;1.27;0.60;;;7.80;99.90;;;;;;6311776;22;20009;-78
2023/01/08 05:50:25;;;;;;;0.98;0.40;;;7.80;99.90;;;;;;6343290;22;19995;-78
2023/01/08 05:52:50;;;;;;;1.85;0.50;;;7.80;99.90;;;;;;6343078;22;20006;-78
2023/01/08 05:55:17;;;;;;;2.80;0.40;;;7.80;99.90;;;;;;6343129;22;20026;-78
2023/01/08 05:57:43;;;;;;;2.47;0.60;;;7.70;99.90;;;;;;6343416;22;20006;-78
2023/01/08 06:00:10;;;;;;;2.10;0.45;;;7.70;99.90;;;;;;6314100;22;20004;-78
2023/01/08 06:02:35;;;;;;;1.75;0.47;;;7.70;99.90;;;;;;6342891;22;19994;-78
2023/01/08 06:05:01;;;;;;;1.25;0.38;;;7.70;99.90;;;;;;6343536;22;20009;-78
2023/01/08 06:07:30;;;;;;;1.15;0.43;;;7.70;99.90;;;;;;6343361;22;20066;-80
2023/01/08 06:09:55;;;;;;;1.85;0.45;;;7.60;99.90;;;;;;6344870;22;19995;-80
2023/01/08 06:12:21;;;;;;;0.80;0.43;;;7.60;99.90;;;;;;6345082;22;20014;-80
2023/01/08 06:14:47;;;;;;;1.85;0.63;;;7.70;99.90;;;;;;6344885;22;20052;-78
2023/01/08 06:17:13;;;;;;;2.63;0.52;;;7.70;99.90;;;;;;6344968;22;20077;-78
2023/01/08 06:19:39;;;;;;;1.48;0.40;;;7.70;99.90;;;;;;6311872;22;20383;-78
2023/01/08 06:22:05;;;;;;;2.78;0.47;;;7.70;99.90;;;;;;6314225;22;20011;-78
2023/01/08 06:24:31;;;;;;;2.20;0.50;;;7.70;99.90;;;;;;6344329;22;20408;-79
2023/01/08 06:26:56;;;;;;;1.25;0.50;;;7.70;99.90;;;;;;6344810;22;19999;-79
2023/01/08 06:29:22;;;;;;;1.30;0.47;;;7.80;99.90;;;;;;6344633;22;20023;-79
2023/01/08 06:31:48;;;;;;;2.72;0.70;;;7.80;99.90;;;;;;6344640;22;20024;-78
2023/01/08 06:34:14;;;;;;;3.03;0.63;;;7.80;99.90;;;;;;6344303;22;20052;-78
2023/01/08 06:36:39;;;;;;;2.38;0.50;;;7.80;99.90;;;;;;6344411;22;20036;-78
2023/01/08 06:39:06;;;;;;;3.35;0.65;;;7.80;99.90;;;;;;6344895;22;20013;-78
2023/01/08 06:41:31;;;;;;;1.80;1.00;;;7.80;99.90;;;;;;6311489;22;20012;-78
2023/01/08 06:43:57;;;;;;;3.42;0.75;;;7.90;99.90;;;;;;6312721;22;20018;-78
2023/01/08 06:46:23;;;;;;;3.40;0.47;;;7.80;99.90;;;;;;6344272;22;19995;-77
2023/01/08 06:48:48;;;;;;;1.83;0.57;;;7.80;99.90;;;;;;6341955;22;20054;-78
2023/01/08 06:51:14;;;;;;;1.23;0.50;;;7.80;99.90;;;;;;6342269;22;20014;-78
2023/01/08 06:53:40;;;;;;;2.90;0.90;;;7.80;99.90;;;;;;6342776;22;20006;-78
2023/01/08 06:56:08;;;;;;;2.05;0.52;;;7.70;99.90;;;;;;6344655;22;19999;-78
2023/01/08 06:58:34;;;;;;;2.75;0.57;;;7.70;99.90;;;;;;6344219;22;20055;-78
2023/01/08 07:00:59;;;;;;;2.35;0.52;;;7.70;99.90;;;;;;6344269;22;20034;-81
2023/01/08 07:03:26;;;;;;;1.65;0.50;;;7.70;99.90;;;;;;6311762;22;20015;-81
2023/01/08 07:05:52;;;;;;;2.90;0.40;;;7.70;99.90;;;;;;6311597;22;20091;-81
2023/01/08 07:08:18;;;;;;;2.25;0.40;;;7.80;99.90;;;;;;6312531;22;19999;-82
2023/01/08 07:10:44;;;;;;;2.78;0.40;;;7.80;99.90;;;;;;6337674;22;19995;-81
2023/01/08 07:13:11;;;;;;;1.65;0.60;;;7.80;99.90;;;;;;6345177;22;20006;-81
2023/01/08 07:15:38;;;;;;;2.63;0.60;;;7.80;99.90;;;;;;6344376;22;20009;-81
2023/01/08 07:18:05;;;;;;;1.17;0.45;;;7.80;99.90;;;;;;6313937;22;20025;-80
2023/01/08 07:20:32;;;;;;;2.08;0.45;;;7.80;99.90;;;;;;6310657;22;20387;-82
2023/01/08 07:23:06;;;;;;;1.63;0.50;;;7.80;99.90;;;;;;6340567;22;21102;-82
2023/01/08 07:25:32;;;;;;;3.63;0.73;;;7.80;99.90;;;;;;6311827;22;20000;-82
2023/01/08 07:27:59;;;;;;;4.18;0.98;;;7.90;99.90;;;;;;6340545;22;20069;-82
2023/01/08 07:30:25;;;;;;;3.55;0.77;;;7.80;99.90;;;;;;6311456;22;20027;-80
2023/01/08 07:32:51;;;;;;;1.85;0.40;;;7.90;99.90;;;;;;6338835;22;20335;-80
2023/01/08 07:35:17;;;;;;;4.80;1.00;;;7.80;99.90;;;;;;6303971;22;20009;-80
2023/01/08 07:37:42;;;;;;;1.48;0.50;;;7.80;99.90;;;;;;6344397;22;20335;-80
2023/01/08 07:40:10;;;;;;;2.05;0.40;;;7.80;99.90;;;;;;6344393;22;20069;-80
2023/01/08 07:42:36;;;;;;;2.67;0.65;;;7.80;99.90;;;;;;6344404;22;20451;-80
2023/01/08 07:45:03;;;;;;;3.22;0.80;;;7.80;99.90;;;;;;6313606;22;20007;-79
2023/01/08 07:47:28;;;;;;;2.13;0.73;;;7.80;99.90;;;;;;6344253;22;20323;-79
2023/01/08 07:49:54;;;;;;;2.67;0.63;;;7.80;99.90;;;;;;6312064;22;20003;-80
2023/01/08 07:52:20;;;;;;;2.85;0.80;;;7.80;99.90;;;;;;6344282;22;19999;-81
2023/01/08 07:54:46;;;;;;;2.65;1.00;;;7.90;99.90;;;;;;6344238;22;20010;-81
2023/01/08 07:57:12;;;;;;;2.20;0.90;;;7.90;99.90;;;;;;6344375;22;20082;-81
2023/01/08 07:59:37;;;;;;;3.00;1.15;;;7.90;99.90;;;;;;6310999;22;20003;-81
2023/01/08 08:02:03;;;;;;;4.07;0.70;;;7.90;99.90;;;;;;6313276;22;20821;-81
2023/01/08 08:04:29;;;;;;;2.65;0.88;;;7.90;99.90;;;;;;6344275;22;19995;-80
2023/01/08 08:06:54;;;;;;;4.28;0.93;;;7.90;99.90;;;;;;6344236;22;20033;-80
2023/01/08 08:09:20;;;;;;;1.95;0.60;;;7.90;99.90;;;;;;6311204;22;20010;-80
2023/01/08 08:11:46;;;;;;;3.90;0.88;;;7.90;99.90;;;;;;6337417;22;20013;-80
2023/01/08 08:14:11;;;;;;;2.75;0.70;;;7.90;99.90;;;;;;6343905;22;20002;-80
2023/01/08 08:16:37;;;;;;;2.42;0.52;;;7.90;99.90;;;;;;6343924;22;20069;-79
2023/01/08 08:19:03;;;;;;;3.47;0.82;;;7.90;99.90;;;;;;6343795;22;19999;-78
2023/01/08 08:21:29;;;;;;;2.30;0.75;;;7.90;99.90;;;;;;6343819;22;19995;-80
2023/01/08 08:23:55;;;;;;;2.45;0.60;;;7.90;99.90;;;;;;6311525;22;20030;-80
2023/01/08 08:26:22;;;;;;;3.38;1.08;;;8.00;99.90;;;;;;6311063;22;19999;-80
2023/01/08 08:28:48;;;;;;;6.40;0.95;;;8.00;99.90;;;;;;6310572;22;20010;-81
2023/01/08 08:31:14;;;;;;;2.50;0.70;;;8.00;99.90;;;;;;6315496;22;20327;-80
2023/01/08 08:33:40;;;;;;;3.10;0.80;;;8.00;99.90;;;;;;6343955;22;20003;-80
2023/01/08 08:36:06;;;;;;;3.75;1.10;;;8.00;99.90;;;;;;6344029;22;20087;-80
2023/01/08 08:38:32;;;;;;;3.25;1.13;;;8.00;99.90;;;;;;6344101;22;20014;-80
2023/01/08 08:40:58;;;;;;;3.80;0.90;;;8.00;99.90;;;;;;6343650;22;20313;-80
2023/01/08 08:43:24;;;;;;;2.65;0.60;;;7.90;99.90;;;;;;6343250;22;20073;-79
2023/01/08 08:45:49;;;;;;;3.83;0.90;;;7.90;99.90;;;;;;6343683;22;20065;-79
2023/01/08 08:48:15;;;;;;;2.28;0.77;;;7.90;99.90;;;;;;6343753;22;19991;-79
2023/01/08 08:50:41;;;;;;;4.85;0.85;;;7.90;99.90;;;;;;6311216;22;19999;-78
2023/01/08 08:53:08;;;;;;;2.80;0.60;;;7.90;99.90;;;;;;6341794;22;20018;-79
2023/01/08 08:55:34;;;;;;;4.10;0.95;;;7.80;99.90;;;;;;6343801;22;19999;-81
2023/01/08 08:58:11;;;;;;;4.13;1.10;;;7.90;99.90;;;;;;6312211;22;20394;-81
2023/01/08 09:00:41;;;;;;;1.42;0.52;;;7.90;99.90;;;;;;6343431;22;20006;-82
2023/01/08 09:03:12;;;;;;;4.60;0.90;;;7.90;99.90;;;;;;6313869;22;20003;-79
2023/01/08 09:05:38;;;;;;;2.15;0.50;;;7.90;99.90;;;;;;6310976;22;20452;-79
2023/01/08 09:08:04;;;;;;;2.10;0.80;;;7.90;99.90;;;;;;6313345;22;20003;-79
2023/01/08 09:10:29;;;;;;;5.10;0.80;;;7.90;99.90;;;;;;6310540;22;20432;-82
2023/01/08 09:12:55;;;;;;;2.30;0.77;;;7.90;99.90;;;;;;6311453;22;20056;-80
2023/01/08 09:15:21;;;;;;;1.92;0.73;;;7.90;99.90;;;;;;6342754;22;20056;-79
2023/01/08 09:17:56;;;;;;;3.22;0.90;;;8.00;99.90;;;;;;6342791;22;20028;-79
2023/01/08 09:20:24;;;;;;;4.60;1.10;;;8.00;99.90;;;;;;6309674;22;20086;-78
2023/01/08 09:22:50;;;;;;;2.55;0.95;;;8.10;99.90;;;;;;6310270;22;20321;-78
2023/01/08 09:25:16;;;;;;;3.67;1.15;;;8.10;99.90;;;;;;6342014;22;20083;-76
2023/01/08 09:27:42;;;;;;;3.30;0.70;;;8.10;99.90;;;;;;6340916;22;20006;-78
2023/01/08 09:30:08;;;;;;;3.67;0.90;;;8.20;99.90;;;;;;6341587;22;19995;-79
2023/01/08 09:32:33;;;;;;;3.45;0.90;;;8.30;99.90;;;;;;6341686;22;20308;-80
2023/01/08 09:34:59;;;;;;;2.90;0.93;;;8.30;99.90;;;;;;6342140;22;20003;-80
2023/01/08 09:37:25;;;;;;;3.78;0.98;;;8.30;99.90;;;;;;6341665;22;20010;-80
2023/01/08 09:39:50;;;;;;;2.38;0.57;;;8.40;99.90;;;;;;6309194;22;20007;-80
2023/01/08 09:42:21;;;;;;;5.40;1.10;;;8.50;99.90;;;;;;6341355;22;20327;-77
2023/01/08 09:44:50;;;;;;;4.22;1.02;;;8.50;99.90;;;;;;6341522;22;20005;-79
2023/01/08 09:47:34;;;;;;;4.22;1.05;;;8.60;99.90;;;;;;6343060;22;20365;-79
2023/01/08 09:50:03;;;;;;;4.20;0.90;;;8.60;99.90;;;;;;6343535;22;20018;-79
2023/01/08 09:52:31;;;;;;;4.53;0.80;;;8.70;99.90;;;;;;6343556;22;20133;-80
2023/01/08 09:54:56;;;;;;;4.65;0.93;;;8.80;99.90;;;;;;6344681;22;20009;-80
2023/01/08 09:57:22;;;;;;;5.10;1.10;;;8.80;99.90;;;;;;6312739;22;20055;-79
2023/01/08 09:59:48;;;;;;;4.38;1.00;;;8.90;99.90;;;;;;6337999;22;19999;-78
2023/01/08 10:02:24;;;;;;;5.60;1.02;;;9.00;99.90;;;;;;6316694;22;20003;-78
2023/01/08 10:04:55;;;;;;;4.97;1.25;;;9.00;99.90;;;;;;6344956;22;20006;-78
2023/01/08 10:07:24;;;;;;;6.10;1.20;;;9.00;99.90;;;;;;6312417;22;20003;-78
2023/01/08 10:09:51;;;;;;;2.95;0.98;;;9.00;99.90;;;;;;6339170;22;20419;-79
2023/01/08 10:12:26;;;;;;;2.88;0.85;;;9.00;99.90;;;;;;6312262;22;20027;-72
2023/01/08 10:14:57;;;;;;;2.67;1.15;;;9.00;99.90;;;;;;6339399;22;20010;-74
2023/01/08 10:17:26;;;;;;;2.40;0.65;;;9.10;99.90;;;;;;6344604;22;20054;-71
2023/01/08 10:19:52;;;;;;;3.85;1.23;;;9.20;99.90;;;;;;6344917;22;20006;-69
2023/01/08 10:22:21;;;;;;;4.70;0.88;;;9.30;99.90;;;;;;6311688;22;20086;-71
2023/01/08 10:24:47;;;;;;;4.97;1.08;;;9.30;99.90;;;;;;6338356;22;19999;-71
2023/01/08 10:27:14;;;;;;;6.10;1.30;;;9.30;99.90;;;;;;6316049;22;20072;-73
2023/01/08 10:29:40;;;;;;;3.85;1.15;;;9.40;99.90;;;;;;6343511;22;20021;-72
2023/01/08 10:32:31;;;;;;;3.95;0.90;;;9.50;99.90;;;;;;6312934;22;20011;-71
2023/01/08 10:34:58;;;;;;;2.45;0.80;;;9.60;99.90;;;;;;6325292;22;20010;-71
2023/01/08 10:37:30;;;;;;;3.60;0.82;;;9.70;99.90;;;;;;6343467;22;20022;-72
2023/01/08 10:40:07;;;;;;;4.35;0.95;;;9.70;99.90;;;;;;6344685;22;20003;-72
2023/01/08 10:42:34;;;;;;;2.17;0.93;;;9.70;99.90;;;;;;6342900;22;20445;-71
2023/01/08 10:45:04;;;;;;;4.82;1.05;;;9.70;99.90;;;;;;6343081;22;19999;-72
2023/01/08 10:47:32;;;;;;;4.22;1.10;;;9.70;99.90;;;;;;6310128;22;20047;-72
2023/01/08 10:50:01;;;;;;;2.30;0.85;;;9.80;99.90;;;;;;6311964;22;20125;-72
2023/01/08 10:52:35;;;;;;;5.55;1.17;;;9.80;99.90;;;;;;6309747;22;20007;-72
2023/01/08 10:55:22;;;;;;;1.85;0.77;;;9.80;99.90;;;;;;6339372;22;19999;-72
2023/01/08 10:58:02;;;;;;;3.55;0.98;;;9.80;99.90;;;;;;6342916;22;20005;-71
2023/01/08 11:00:30;;;;;;;2.63;0.52;;;9.80;99.90;;;;;;6310143;22;20010;-72
2023/01/08 11:03:00;;;;;;;2.72;0.90;;;9.80;99.90;;;;;;6310604;22;20003;-76
2023/01/08 11:05:34;;;;;;;2.85;0.75;;;9.90;99.90;;;;;;6343217;22;20001;-75
2023/01/08 11:08:02;;;;;;;5.13;0.93;;;9.80;99.90;;;;;;6311299;22;20083;-75
2023/01/08 11:10:29;;;;;;;4.65;1.00;;;9.80;99.90;;;;;;6310328;22;20448;-74
2023/01/08 11:13:00;;;;;;;4.25;1.05;;;9.70;99.90;;;;;;6338296;22;20427;-75
2023/01/08 11:15:31;;;;;;;2.05;0.93;;;9.70;99.90;;;;;;6342910;22;20373;-72
2023/01/08 11:18:05;;;;;;;3.30;0.60;;;9.70;99.90;;;;;;6342864;22;19998;-72
2023/01/08 11:20:32;;;;;;;4.97;0.75;;;9.70;99.90;;;;;;6342864;22;20048;-72
2023/01/08 11:23:18;;;;;;;3.60;0.77;;;9.70;99.90;;;;;;6343128;22;19998;-72
2023/01/08 11:25:54;;;;;;;3.83;0.77;;;9.80;99.90;;;;;;6343330;22;19995;-73
2023/01/08 11:28:30;;;;;;;3.35;0.65;;;9.80;99.90;;;;;;6343391;22;20479;-73
2023/01/08 11:31:08;;;;;;;2.22;0.70;;;9.80;99.90;;;;;;6342884;22;19995;-73
2023/01/08 11:33:38;;;;;;;4.60;0.90;;;9.80;99.90;;;;;;6309871;22;20703;-73
2023/01/08 11:36:23;;;;;;;4.07;1.20;;;9.80;99.90;;;;;;6312728;22;20072;-72
2023/01/08 11:38:49;;;;;;;2.85;0.73;;;9.80;99.90;;;;;;6342618;22;20010;-72
2023/01/08 11:41:38;;;;;;;3.13;0.93;;;9.90;99.90;;;;;;6314586;22;20014;-72
2023/01/08 11:44:21;;;;;;;2.58;1.10;;;10.00;99.90;;;;;;6293230;22;20339;-72
2023/01/08 11:47:20;;;;;;;2.90;0.80;;;10.20;99.90;;;;;;6344297;22;20010;-72
2023/01/08 11:50:05;;;;;;;2.55;0.65;;;10.40;99.90;;;;;;6344285;22;20002;-72
2023/01/08 11:52:51;;;;;;;4.72;0.60;;;10.60;99.90;;;;;;6310817;22;20003;-72
2023/01/08 11:55:39;;;;;;;1.95;0.73;;;10.60;99.90;;;;;;6344143;22;20015;-74
2023/01/08 11:58:35;;;;;;;2.90;0.90;;;10.60;99.90;;;;;;6343746;22;19995;-72
2023/01/08 12:01:25;;;;;;;4.75;0.93;;;10.70;99.90;;;;;;6346067;22;20040;-74
2023/01/08 12:04:32;;;;;;;2.75;0.75;;;10.70;99.90;;;;;;6346024;22;20010;-73
2023/01/08 12:07:23;;;;;;;2.58;0.68;;;10.80;99.90;;;;;;6344778;22;19999;-72
2023/01/08 12:10:00;;;;;;;3.50;0.90;;;10.90;99.90;;;;;;6346342;22;19995;-72
2023/01/08 12:12:38;;;;;;;3.95;0.93;;;10.90;99.90;;;;;;6312793;22;20003;-74
2023/01/08 12:15:44;;;;;;;6.72;0.90;;;10.90;99.90;;;;;;6315237;22;20011;-72
2023/01/08 12:18:26;;;;;;;3.78;0.75;;;10.90;99.90;;;;;;6205840;22;20014;-73
2023/01/08 12:21:18;;;;;;;4.28;0.70;;;11.00;99.90;;;;;;6343065;22;20386;-72
2023/01/08 12:23:53;;;;;;;3.25;0.75;;;11.00;99.90;;;;;;6308608;22;20007;-73
2023/01/08 12:26:24;;;;;;;3.65;0.98;;;10.90;99.90;;;;;;6308442;22;20417;-72
2023/01/08 12:29:21;;;;;;;5.22;0.80;;;10.90;99.90;;;;;;6334362;22;20018;-73
2023/01/08 12:32:08;;;;;;;3.67;0.98;;;10.90;99.90;;;;;;6309690;22;19999;-72
2023/01/08 12:34:58;;;;;;;2.83;0.80;;;11.00;99.90;;;;;;6309573;22;20049;-73
2023/01/08 12:37:47;;;;;;;2.35;0.63;;;11.10;99.90;;;;;;6310226;22;20047;-72
2023/01/08 12:40:33;;;;;;;3.25;0.70;;;11.20;99.90;;;;;;6298418;22;20009;-69
2023/01/08 12:43:03;;;;;;;2.65;0.80;;;11.20;99.90;;;;;;6343617;22;20003;-71
2023/01/08 12:45:34;;;;;;;6.28;1.08;;;11.30;99.90;;;;;;6343571;22;19995;-71
2023/01/08 12:48:06;;;;;;;3.95;1.00;;;11.40;99.90;;;;;;6343390;22;20074;-70
2023/01/08 12:50:35;;;;;;;3.47;0.70;;;11.50;99.90;;;;;;6343677;22;20006;-71
2023/01/08 12:53:26;;;;;;;4.60;1.00;;;11.50;99.90;;;;;;6312314;22;20003;-72
2023/01/08 12:56:18;;;;;;;5.95;0.80;;;11.60;99.90;;;;;;6343839;22;20003;-72
2023/01/08 12:59:20;;;;;;;3.05;0.88;;;11.70;99.90;;;;;;6341696;22;20071;-73
2023/01/08 13:02:10;;;;;;;4.07;1.08;;;11.70;99.90;;;;;;6292053;22;20003;-71
2023/01/08 13:04:44;;;;;;;1.55;0.60;;;11.70;99.90;;;;;;6342083;22;20054;-71
2023/01/08 13:07:16;;;;;;;5.65;1.10;;;11.60;99.90;;;;;;6341752;22;20056;-71
2023/01/08 13:09:42;;;;;;;5.68;1.10;;;11.60;99.90;;;;;;6341949;22;20450;-71
2023/01/08 13:12:13;;;;;;;3.28;0.80;;;11.50;99.90;;;;;;6341843;22;20439;-71
2023/01/08 13:14:47;;;;;;;3.13;0.77;;;11.50;99.90;;;;;;6307757;22;20071;-71
2023/01/08 13:17:20;;;;;;;4.05;1.02;;;11.50;99.90;;;;;;6339878;22;20085;-71
2023/01/08 13:19:53;;;;;;;4.97;1.10;;;11.50;99.90;;;;;;6310826;22;20056;-72